Time,TemperatureF,DewpointF,PressureIn,WindDirection,WindDirectionDegrees,WindSpeedMPH,WindSpeedGustMPH,Humidity,HourlyPrecipIn,Conditions,Clouds,dailyrainin,SoftwareType,DateUTC
2013-09-24 00:00:00,39.2,35.4,29.72,NE,45,0.0,-999.0,86,-99.99,,,0.00,Acu-Link.com,2013-09-24 07:00:00,
2013-09-24 00:16:00,37.4,33.6,29.72,SSW,202,0.0,-999.0,86,-99.99,,,0.00,Acu-Link.com,2013-09-24 07:16:00,
2013-09-24 00:31:00,37.4,34.2,29.72,NE,45,1.6,-999.0,88,-99.99,,,0.00,Acu-Link.com,2013-09-24 07:31:00,
2013-09-24 00:46:00,37.4,34.2,29.72,SSW,202,0.0,-999.0,88,-99.99,,,0.00,Acu-Link.com,2013-09-24 07:46:00,
2013-09-24 01:01:00,37.4,34.2,29.72,NNE,22,0.0,-999.0,88,-99.99,,,0.00,Acu-Link.com,2013-09-24 08:01:00,
2013-09-24 01:16:00,35.6,32.4,29.72,East,90,0.0,-999.0,88,-99.99,,,0.00,Acu-Link.com,2013-09-24 08:16:00,
2013-09-24 01:32:00,35.6,32.4,29.72,East,90,0.0,-999.0,88,-99.99,,,0.00,Acu-Link.com,2013-09-24 08:32:00,
2013-09-24 01:47:00,35.6,32.7,29.72,East,90,0.0,-999.0,89,-99.99,,,0.00,Acu-Link.com,2013-09-24 08:47:00,
2013-09-24 02:02:00,35.6,35.1,29.72,SSE,157,0.0,-999.0,98,-99.99,,,0.00,Acu-Link.com,2013-09-24 09:02:00,
2013-09-24 02:17:00,35.6,33.2,29.73,ESE,112,0.0,-999.0,91,-99.99,,,0.00,Acu-Link.com,2013-09-24 09:17:00,
2013-09-24 02:32:00,33.8,33.0,29.73,East,90,0.0,-999.0,97,-99.99,,,0.00,Acu-Link.com,2013-09-24 09:32:00,
2013-09-24 02:48:00,33.8,33.3,29.73,ENE,67,0.0,-999.0,98,-99.99,,,0.00,Acu-Link.com,2013-09-24 09:48:00,
2013-09-24 03:03:00,33.8,33.3,29.73,SE,135,0.0,-999.0,98,-99.99,,,0.00,Acu-Link.com,2013-09-24 10:03:00,
2013-09-24 03:18:00,33.8,33.3,29.73,SSE,157,0.0,-999.0,98,-99.99,,,0.00,Acu-Link.com,2013-09-24 10:18:00,
2013-09-24 03:33:00,33.8,33.3,29.73,ESE,112,0.0,-999.0,98,-99.99,,,0.00,Acu-Link.com,2013-09-24 10:33:00,
2013-09-24 03:48:00,32.0,31.5,29.73,ENE,67,0.0,-999.0,98,-99.99,,,0.00,Acu-Link.com,2013-09-24 10:48:00,
2013-09-24 04:03:00,32.0,31.5,29.74,ESE,112,0.0,-999.0,98,-99.99,,,0.00,Acu-Link.com,2013-09-24 11:03:00,
2013-09-24 04:18:00,32.0,31.5,29.74,NNE,22,0.0,-999.0,98,-99.99,,,0.00,Acu-Link.com,2013-09-24 11:18:00,
2013-09-24 04:33:00,32.0,31.5,29.73,NE,45,0.0,-999.0,98,-99.99,,,0.00,Acu-Link.com,2013-09-24 11:33:00,
2013-09-24 04:49:00,32.0,31.5,29.73,NE,45,0.0,-999.0,98,-99.99,,,0.00,Acu-Link.com,2013-09-24 11:49:00,
2013-09-24 05:04:00,32.0,31.5,29.73,NE,45,0.0,-999.0,98,-99.99,,,0.00,Acu-Link.com,2013-09-24 12:04:00,
2013-09-24 05:19:00,32.0,31.5,29.73,NE,45,0.0,-999.0,98,-99.99,,,0.00,Acu-Link.com,2013-09-24 12:19:00,
2013-09-24 05:35:00,32.0,31.5,29.73,NE,45,0.0,-999.0,98,-99.99,,,0.00,Acu-Link.com,2013-09-24 12:35:00,
2013-09-24 05:50:00,32.0,31.5,29.73,NE,45,0.0,-999.0,98,-99.99,,,0.00,Acu-Link.com,2013-09-24 12:50:00,
2013-09-24 06:05:00,32.0,31.5,29.73,NE,45,0.0,-999.0,98,-99.99,,,0.00,Acu-Link.com,2013-09-24 13:05:00,
2013-09-24 06:20:00,32.0,31.5,29.74,NE,45,0.0,-999.0,98,-99.99,,,0.00,Acu-Link.com,2013-09-24 13:20:00,
2013-09-24 06:35:00,32.0,31.5,29.73,NE,45,0.0,-999.0,98,-99.99,,,0.00,Acu-Link.com,2013-09-24 13:35:00,
2013-09-24 06:50:00,32.0,31.5,29.73,NE,45,0.0,-999.0,98,-99.99,,,0.00,Acu-Link.com,2013-09-24 13:50:00,
2013-09-24 07:05:00,32.0,31.5,29.73,NE,45,0.0,-999.0,98,-99.99,,,0.00,Acu-Link.com,2013-09-24 14:05:00,
2013-09-24 07:21:00,32.0,31.5,29.73,NE,45,0.0,-999.0,98,-99.99,,,0.00,Acu-Link.com,2013-09-24 14:21:00,
2013-09-24 07:36:00,32.0,31.5,29.74,NE,45,0.0,-999.0,98,-99.99,,,0.00,Acu-Link.com,2013-09-24 14:36:00,
2013-09-24 07:51:00,32.0,31.5,29.74,NE,45,0.0,-999.0,98,-99.99,,,0.00,Acu-Link.com,2013-09-24 14:51:00,
2013-09-24 08:06:00,32.0,31.5,29.74,NE,45,0.0,-999.0,98,-99.99,,,0.00,Acu-Link.com,2013-09-24 15:06:00,
2013-09-24 08:21:00,32.0,31.5,29.74,NE,45,0.0,-999.0,98,-99.99,,,0.00,Acu-Link.com,2013-09-24 15:21:00,
2013-09-24 08:36:00,32.0,31.5,29.74,SSW,202,0.0,-999.0,98,-99.99,,,0.00,Acu-Link.com,2013-09-24 15:36:00,
2013-09-24 08:52:00,33.8,33.3,29.74,SSW,202,0.0,-999.0,98,-99.99,,,0.00,Acu-Link.com,2013-09-24 15:52:00,
2013-09-24 09:07:00,35.6,35.1,29.74,South,180,0.0,-999.0,98,-99.99,,,0.00,Acu-Link.com,2013-09-24 16:07:00,
2013-09-24 09:22:00,35.6,35.1,29.74,South,180,1.6,-999.0,98,-99.99,,,0.01,Acu-Link.com,2013-09-24 16:22:00,
2013-09-24 09:37:00,37.4,36.9,29.74,SSW,202,0.0,-999.0,98,-99.99,,,0.01,Acu-Link.com,2013-09-24 16:37:00,
2013-09-24 09:52:00,37.4,35.0,29.73,SSE,157,1.6,-999.0,91,-99.99,,,0.01,Acu-Link.com,2013-09-24 16:52:00,
2013-09-24 10:07:00,41.0,35.9,29.74,SE,135,1.6,-999.0,82,-99.99,,,0.01,Acu-Link.com,2013-09-24 17:07:00,
2013-09-24 10:22:00,42.8,37.1,29.73,East,90,1.1,-999.0,80,-99.99,,,0.01,Acu-Link.com,2013-09-24 17:22:00,
2013-09-24 10:37:00,44.6,37.5,29.73,WSW,247,3.1,-999.0,76,-99.99,,,0.01,Acu-Link.com,2013-09-24 17:37:00,
2013-09-24 10:52:00,46.4,37.5,29.73,SSE,157,1.1,-999.0,71,-99.99,,,0.01,Acu-Link.com,2013-09-24 17:52:00,
2013-09-24 11:07:00,46.4,36.8,29.73,ESE,112,2.0,-999.0,69,-99.99,,,0.01,Acu-Link.com,2013-09-24 18:07:00,
2013-09-24 11:23:00,48.2,37.0,29.72,ESE,112,1.1,-999.0,65,-99.99,,,0.01,Acu-Link.com,2013-09-24 18:23:00,
2013-09-24 11:38:00,50.0,36.2,29.72,ENE,67,2.7,-999.0,59,-99.99,,,0.01,Acu-Link.com,2013-09-24 18:38:00,
2013-09-24 11:53:00,50.0,33.1,29.72,NE,45,2.0,-999.0,52,-99.99,,,0.01,Acu-Link.com,2013-09-24 18:53:00,
2013-09-24 12:08:00,51.8,35.7,29.71,SSW,202,2.0,-999.0,54,-99.99,,,0.01,Acu-Link.com,2013-09-24 19:08:00,
2013-09-24 12:23:00,51.8,33.8,29.71,West,270,3.1,-999.0,50,-99.99,,,0.01,Acu-Link.com,2013-09-24 19:23:00,
2013-09-24 12:39:00,53.6,36.4,29.71,ENE,67,2.0,-999.0,52,-99.99,,,0.01,Acu-Link.com,2013-09-24 19:39:00,
2013-09-24 12:54:00,53.6,36.4,29.70,ENE,67,2.7,-999.0,52,-99.99,,,0.01,Acu-Link.com,2013-09-24 19:54:00,
2013-09-24 13:09:00,53.6,34.9,29.69,ESE,112,1.6,-999.0,49,-99.99,,,0.01,Acu-Link.com,2013-09-24 20:09:00,
2013-09-24 13:25:00,53.6,33.3,29.70,NW,315,3.6,-999.0,46,-99.99,,,0.01,Acu-Link.com,2013-09-24 20:25:00,
2013-09-24 13:40:00,53.6,32.2,29.69,SE,135,2.7,-999.0,44,-99.99,,,0.01,Acu-Link.com,2013-09-24 20:40:00,
2013-09-24 13:55:00,55.4,31.5,29.69,ENE,67,2.7,-999.0,40,-99.99,,,0.01,Acu-Link.com,2013-09-24 20:55:00,
2013-09-24 14:10:00,53.6,30.5,29.69,NE,45,2.0,-999.0,41,-99.99,,,0.01,Acu-Link.com,2013-09-24 21:10:00,
2013-09-24 14:25:00,55.4,30.2,29.69,WNW,292,3.1,-999.0,38,-99.99,,,0.01,Acu-Link.com,2013-09-24 21:25:00,
2013-09-24 14:40:00,55.4,28.2,29.68,WSW,247,2.0,-999.0,35,-99.99,,,0.01,Acu-Link.com,2013-09-24 21:40:00,
2013-09-24 14:56:00,53.6,31.1,29.68,WSW,247,2.7,-999.0,42,-99.99,,,0.01,Acu-Link.com,2013-09-24 21:56:00,
2013-09-24 15:11:00,55.4,28.9,29.68,SSE,157,1.6,-999.0,36,-99.99,,,0.01,Acu-Link.com,2013-09-24 22:11:00,
2013-09-24 15:26:00,55.4,26.0,29.67,West,270,0.0,-999.0,32,-99.99,,,0.01,Acu-Link.com,2013-09-24 22:26:00,
2013-09-24 15:41:00,57.2,28.4,29.68,NNE,22,1.6,-999.0,33,-99.99,,,0.01,Acu-Link.com,2013-09-24 22:41:00,
2013-09-24 15:56:00,55.4,29.6,29.68,NE,45,2.0,-999.0,37,-99.99,,,0.01,Acu-Link.com,2013-09-24 22:56:00,
2013-09-24 16:11:00,55.4,26.8,29.68,WSW,247,2.0,-999.0,33,-99.99,,,0.01,Acu-Link.com,2013-09-24 23:11:00,
2013-09-24 16:26:00,53.6,29.9,29.68,SW,225,0.0,-999.0,40,-99.99,,,0.01,Acu-Link.com,2013-09-24 23:26:00,
2013-09-24 16:42:00,53.6,31.1,29.68,NE,45,1.6,-999.0,42,-99.99,,,0.01,Acu-Link.com,2013-09-24 23:42:00,
2013-09-24 16:57:00,55.4,32.1,29.69,SW,225,2.7,-999.0,41,-99.99,,,0.01,Acu-Link.com,2013-09-24 23:57:00,
2013-09-24 17:12:00,55.4,32.1,29.69,NE,45,1.6,-999.0,41,-99.99,,,0.01,Acu-Link.com,2013-09-25 00:12:00,
2013-09-24 17:27:00,53.6,33.9,29.69,ESE,112,0.0,-999.0,47,-99.99,,,0.01,Acu-Link.com,2013-09-25 00:27:00,
2013-09-24 17:42:00,53.6,33.9,29.69,NNE,22,3.6,-999.0,47,-99.99,,,0.01,Acu-Link.com,2013-09-25 00:42:00,
2013-09-24 17:57:00,51.8,35.2,29.70,East,90,1.6,-999.0,53,-99.99,,,0.01,Acu-Link.com,2013-09-25 00:57:00,
2013-09-24 18:13:00,50.0,34.9,29.70,NE,45,0.0,-999.0,56,-99.99,,,0.01,Acu-Link.com,2013-09-25 01:13:00,
2013-09-24 18:28:00,48.2,35.0,29.70,SW,225,1.6,-999.0,60,-99.99,,,0.01,Acu-Link.com,2013-09-25 01:28:00,
2013-09-24 18:43:00,46.4,34.9,29.71,WNW,292,0.0,-999.0,64,-99.99,,,0.01,Acu-Link.com,2013-09-25 01:43:00,
2013-09-24 18:58:00,44.6,35.1,29.71,East,90,1.1,-999.0,69,-99.99,,,0.01,Acu-Link.com,2013-09-25 01:58:00,
2013-09-24 19:14:00,44.6,36.1,29.72,NNE,22,1.6,-999.0,72,-99.99,,,0.01,Acu-Link.com,2013-09-25 02:14:00,
2013-09-24 19:29:00,42.8,35.1,29.72,ESE,112,0.0,-999.0,74,-99.99,,,0.01,Acu-Link.com,2013-09-25 02:29:00,
2013-09-24 19:44:00,42.8,36.1,29.73,NE,45,0.0,-999.0,77,-99.99,,,0.01,Acu-Link.com,2013-09-25 02:44:00,
2013-09-24 19:59:00,41.0,34.7,29.73,NNE,22,0.0,-999.0,78,-99.99,,,0.01,Acu-Link.com,2013-09-25 02:59:00,
2013-09-24 20:14:00,41.0,35.0,29.74,NE,45,0.0,-999.0,79,-99.99,,,0.01,Acu-Link.com,2013-09-25 03:14:00,
2013-09-24 20:30:00,41.0,35.9,29.74,NE,45,1.6,-999.0,82,-99.99,,,0.01,Acu-Link.com,2013-09-25 03:30:00,
2013-09-24 20:45:00,41.0,36.5,29.74,NE,45,2.0,-999.0,84,-99.99,,,0.01,Acu-Link.com,2013-09-25 03:45:00,
2013-09-24 21:00:00,41.0,36.8,29.75,NE,45,1.6,-999.0,85,-99.99,,,0.01,Acu-Link.com,2013-09-25 04:00:00,
2013-09-24 21:15:00,39.2,35.4,29.75,South,180,0.0,-999.0,86,-99.99,,,0.01,Acu-Link.com,2013-09-25 04:15:00,
2013-09-24 21:30:00,37.4,33.6,29.75,West,270,0.0,-999.0,86,-99.99,,,0.01,Acu-Link.com,2013-09-25 04:30:00,
2013-09-24 21:45:00,37.4,33.9,29.76,SSE,157,0.0,-999.0,87,-99.99,,,0.01,Acu-Link.com,2013-09-25 04:45:00,
2013-09-24 22:00:00,35.6,32.7,29.77,ENE,67,0.0,-999.0,89,-99.99,,,0.01,Acu-Link.com,2013-09-25 05:00:00,
2013-09-24 22:16:00,35.6,32.7,29.77,NNW,337,0.0,-999.0,89,-99.99,,,0.01,Acu-Link.com,2013-09-25 05:16:00,
2013-09-24 22:31:00,35.6,32.4,29.78,WSW,247,0.0,-999.0,88,-99.99,,,0.01,Acu-Link.com,2013-09-25 05:31:00,
2013-09-24 22:46:00,35.6,32.7,29.78,SSW,202,0.0,-999.0,89,-99.99,,,0.01,Acu-Link.com,2013-09-25 05:46:00,
2013-09-24 23:01:00,33.8,31.2,29.78,SSE,157,0.0,-999.0,90,-99.99,,,0.01,Acu-Link.com,2013-09-25 06:01:00,
2013-09-24 23:16:00,33.8,30.9,29.79,South,180,0.0,-999.0,89,-99.99,,,0.01,Acu-Link.com,2013-09-25 06:16:00,
2013-09-24 23:32:00,33.8,31.7,29.79,NE,45,0.0,-999.0,92,-99.99,,,0.01,Acu-Link.com,2013-09-25 06:32:00,
2013-09-24 23:47:00,33.8,33.3,29.79,NE,45,0.0,-999.0,98,-99.99,,,0.01,Acu-Link.com,2013-09-25 06:47:00,